Main page
METAR-TAF:

METAR-TAF

Airports :

Angers – Loire Airport

Angers, France

latitude: 47-33-37N, longitude: 000-18-44W, elevation: 59 m

Current weather observation

The report was made 27 minutes ago, at 18:30 UTC
Wind 11 kt from the South/Southwest
Temperature 12°C
Humidity 88%
Pressure 1010 hPa
Visibility 10 km or more
Overcast at a height of 900 ft

METAR: LFJR 281830Z AUTO 21011KT 9999 OVC009 12/10 Q1010

Time: 19:57 (18:57 UTC)


TAF: missing

Weather observations and forecasts of more than 4000 airports (METAR and TAF reports).

The available stations are represented by yellow and red dots on the map.

Hover mouse over dot to see the name of the station.

Then click to see weather observations and forecasts.

To change the map : click on the green buttons with a black cross to zoom in, on the green button with a dash to zoom out, or on the green arrows for adjacent maps.


METAR-TAF: